createdAt,value
2022-11-20T00:03:58.856Z,-3.60
2022-11-20T00:09:02.556Z,-3.70
2022-11-20T00:14:04.534Z,-3.60
2022-11-20T00:19:06.268Z,-3.50
2022-11-20T00:24:11.575Z,-3.50
2022-11-20T00:29:13.368Z,-3.50
2022-11-20T00:34:15.243Z,-3.50
2022-11-20T00:39:17.019Z,-3.50
2022-11-20T00:44:18.879Z,-3.60
2022-11-20T00:49:20.850Z,-3.50
2022-11-20T00:54:22.868Z,-3.60
2022-11-20T00:59:24.608Z,-3.60
2022-11-20T01:04:26.307Z,-3.60
2022-11-20T01:09:28.014Z,-3.70
2022-11-20T01:14:29.745Z,-3.60
2022-11-20T01:19:31.522Z,-3.70
2022-11-20T01:24:33.287Z,-3.60
2022-11-20T01:29:35.023Z,-3.60
2022-11-20T01:34:36.858Z,-3.60
2022-11-20T01:39:39.168Z,-3.60
2022-11-20T01:44:59.968Z,-3.50
2022-11-20T01:50:24.898Z,-3.50
2022-11-20T01:55:31.846Z,-3.60
2022-11-20T02:00:33.959Z,-3.60
2022-11-20T02:05:47.546Z,-3.60
2022-11-20T02:10:49.262Z,-3.60
2022-11-20T02:15:51.051Z,-3.70
2022-11-20T02:20:59.905Z,-3.70
2022-11-20T02:26:06.766Z,-3.60
2022-11-20T02:31:08.776Z,-3.60
2022-11-20T02:36:15.231Z,-3.60
2022-11-20T02:41:16.990Z,-3.60
2022-11-20T02:46:18.747Z,-3.60
2022-11-20T02:51:20.470Z,-3.60
2022-11-20T02:56:22.351Z,-3.60
2022-11-20T03:01:24.374Z,-3.70
2022-11-20T03:06:26.408Z,-3.70
2022-11-20T03:11:28.368Z,-3.70
2022-11-20T03:16:31.717Z,-3.70
2022-11-20T03:21:36.835Z,-3.80
2022-11-20T03:26:40.661Z,-3.70
2022-11-20T03:31:42.630Z,-3.70
2022-11-20T03:36:44.566Z,-3.80
2022-11-20T03:41:46.355Z,-3.90
2022-11-20T03:46:48.099Z,-3.90
2022-11-20T03:51:49.810Z,-3.80
2022-11-20T03:56:51.598Z,-3.90
2022-11-20T04:01:53.358Z,-3.90
2022-11-20T04:06:55.345Z,-3.90
2022-11-20T04:11:57.150Z,-3.90
2022-11-20T04:16:58.882Z,-3.90
2022-11-20T04:22:00.758Z,-3.90
2022-11-20T04:27:02.574Z,-4.00
2022-11-20T04:32:04.380Z,-4.00
2022-11-20T04:37:06.166Z,-4.10
2022-11-20T04:42:28.906Z,-4.20
2022-11-20T04:47:30.739Z,-4.20
2022-11-20T04:52:32.456Z,-4.20
2022-11-20T04:57:34.259Z,-4.20
2022-11-20T05:02:36.010Z,-4.20
2022-11-20T05:07:37.782Z,-4.20
2022-11-20T05:12:39.564Z,-4.20
2022-11-20T05:17:41.385Z,-4.20
2022-11-20T05:22:44.005Z,-4.20
2022-11-20T05:27:45.750Z,-4.20
2022-11-20T05:32:47.508Z,-4.10
2022-11-20T05:37:49.262Z,-4.20
2022-11-20T05:42:50.985Z,-4.20
2022-11-20T05:47:52.798Z,-4.30
2022-11-20T05:52:54.564Z,-4.30
2022-11-20T05:57:56.321Z,-4.30
2022-11-20T06:02:58.136Z,-4.20
2022-11-20T06:08:01.864Z,-4.20
2022-11-20T06:13:03.729Z,-4.20
2022-11-20T06:18:05.644Z,-4.20
2022-11-20T06:23:07.402Z,-4.10
2022-11-20T06:28:10.138Z,-4.00
2022-11-20T06:33:11.836Z,-4.00
2022-11-20T06:38:13.702Z,-4.00
2022-11-20T06:43:15.469Z,-4.00
2022-11-20T06:48:17.201Z,-4.00
2022-11-20T06:53:19.269Z,-4.00
2022-11-20T06:58:21.466Z,-3.90
2022-11-20T07:03:23.298Z,-3.70
2022-11-20T07:08:25.776Z,-3.40
2022-11-20T07:13:29.073Z,-3.40
2022-11-20T07:18:31.027Z,-3.20
2022-11-20T07:23:32.841Z,-3.00
2022-11-20T07:28:35.318Z,-3.10
2022-11-20T07:33:37.045Z,-3.30
2022-11-20T07:38:39.284Z,-3.10
2022-11-20T07:43:41.720Z,-2.80
2022-11-20T07:48:43.652Z,-2.20
2022-11-20T07:53:45.450Z,-2.20
2022-11-20T07:58:47.170Z,-2.30
2022-11-20T08:03:48.927Z,-2.40
2022-11-20T08:08:50.697Z,-2.30
2022-11-20T08:14:11.066Z,-2.50
2022-11-20T08:19:14.271Z,-2.20
2022-11-20T08:24:16.089Z,-2.40
2022-11-20T08:29:18.013Z,-2.50
2022-11-20T08:34:19.853Z,-1.70
2022-11-20T08:39:21.968Z,-0.90
2022-11-20T08:44:24.017Z,-0.30
2022-11-20T08:49:25.816Z,0.70
2022-11-20T08:54:27.610Z,0.80
2022-11-20T08:59:58.638Z,0.70
2022-11-20T09:04:51.707Z,0.90
2022-11-20T09:10:16.572Z,1.20
2022-11-20T09:15:15.184Z,2.10
2022-11-20T09:20:17.229Z,2.60
2022-11-20T09:25:19.286Z,2.40
2022-11-20T09:30:21.247Z,3.10
2022-11-20T09:35:23.108Z,1.20
2022-11-20T09:40:27.996Z,0.10
2022-11-20T09:45:35.115Z,-0.40
2022-11-20T09:51:00.536Z,-0.70
2022-11-20T09:56:04.430Z,-0.40
2022-11-20T10:01:16.188Z,-1.00
2022-11-20T10:06:21.918Z,-1.40
2022-11-20T10:11:29.892Z,-2.00
2022-11-20T10:16:52.872Z,-2.20
2022-11-20T10:22:32.314Z,-2.30
2022-11-20T10:28:11.935Z,-2.40
2022-11-20T10:33:22.627Z,-2.50
2022-11-20T10:38:38.469Z,-2.50
2022-11-20T10:43:40.361Z,-2.40
2022-11-20T10:48:45.270Z,-2.50
2022-11-20T10:54:11.274Z,-2.60
2022-11-20T10:59:28.212Z,-2.50
2022-11-20T11:04:33.325Z,-2.60
2022-11-20T11:09:40.546Z,-2.60
2022-11-20T11:14:50.560Z,-2.60
2022-11-20T11:20:07.776Z,-2.50
2022-11-20T11:25:30.576Z,-2.40
2022-11-20T11:30:44.265Z,-2.40
2022-11-20T11:35:53.428Z,-2.50
2022-11-20T11:40:57.524Z,-2.50
2022-11-20T11:46:00.321Z,-2.70
2022-11-20T11:51:02.082Z,-2.80
2022-11-20T11:56:14.814Z,-2.80
2022-11-20T12:01:39.441Z,-2.90
2022-11-20T12:06:46.634Z,-2.90
2022-11-20T12:11:55.377Z,-2.90
2022-11-20T12:16:58.606Z,-2.90
2022-11-20T12:22:21.407Z,-3.00
2022-11-20T12:27:50.246Z,-3.10
2022-11-20T12:33:10.470Z,-3.20
2022-11-20T12:38:15.193Z,-3.30
2022-11-20T12:43:43.334Z,-3.40
2022-11-20T12:48:51.131Z,-3.40
2022-11-20T12:54:23.306Z,-3.50
2022-11-20T12:59:31.034Z,-3.60
2022-11-20T13:04:59.606Z,-3.90
2022-11-20T13:10:02.612Z,-3.90
2022-11-20T13:15:17.326Z,-4.10
2022-11-20T13:20:20.768Z,-4.20
2022-11-20T13:25:40.481Z,-4.40
2022-11-20T13:30:56.062Z,-4.50
2022-11-20T13:36:23.114Z,-4.50
2022-11-20T13:41:34.294Z,-4.60
2022-11-20T13:46:45.438Z,-4.60
2022-11-20T13:51:52.678Z,-4.60
2022-11-20T13:57:13.196Z,-4.60
2022-11-20T14:02:17.300Z,-4.50
2022-11-20T14:07:22.560Z,-4.40
2022-11-20T14:12:35.084Z,-4.30
2022-11-20T14:17:37.722Z,-4.20
2022-11-20T14:22:39.737Z,-4.10
2022-11-20T14:27:44.290Z,-4.10
2022-11-20T14:32:48.361Z,-4.00
2022-11-20T14:37:50.258Z,-4.10
2022-11-20T14:42:52.239Z,-3.90
2022-11-20T14:47:57.645Z,-4.00
2022-11-20T14:53:01.775Z,-4.20
2022-11-20T14:58:24.502Z,-4.20
2022-11-20T15:03:41.100Z,-4.30
2022-11-20T15:08:52.907Z,-4.40
2022-11-20T15:13:55.113Z,-4.40
2022-11-20T15:18:57.230Z,-4.40
2022-11-20T15:24:00.298Z,-4.50
2022-11-20T15:29:02.069Z,-4.50
2022-11-20T15:34:04.007Z,-4.40
2022-11-20T15:39:08.066Z,-4.40
2022-11-20T15:44:09.793Z,-4.40
2022-11-20T15:49:14.557Z,-4.30
2022-11-20T15:54:21.574Z,-4.30
2022-11-20T15:59:23.678Z,-4.40
2022-11-20T16:04:26.267Z,-4.50
2022-11-20T16:09:28.268Z,-4.60
2022-11-20T16:14:48.441Z,-4.70
2022-11-20T16:19:50.168Z,-4.60
2022-11-20T16:24:52.985Z,-4.60
2022-11-20T16:29:54.807Z,-4.70
2022-11-20T16:34:56.735Z,-4.60
2022-11-20T16:39:58.466Z,-4.70
2022-11-20T16:45:00.356Z,-4.60
2022-11-20T16:50:03.482Z,-4.70
2022-11-20T16:55:06.326Z,-4.70
2022-11-20T17:00:08.950Z,-4.70
2022-11-20T17:05:10.759Z,-4.70
2022-11-20T17:10:12.559Z,-4.80
2022-11-20T17:15:14.505Z,-4.80
2022-11-20T17:20:16.589Z,-4.80
2022-11-20T17:25:18.364Z,-4.70
2022-11-20T17:30:20.344Z,-4.60
2022-11-20T17:35:22.117Z,-4.60
2022-11-20T17:40:27.525Z,-4.60
2022-11-20T17:45:29.557Z,-4.60
2022-11-20T17:50:31.329Z,-4.60
2022-11-20T17:55:55.815Z,-4.50
2022-11-20T18:01:05.989Z,-4.50
2022-11-20T18:06:15.735Z,-4.50
2022-11-20T18:11:29.283Z,-4.50
2022-11-20T18:16:34.431Z,-4.50
2022-11-20T18:21:36.589Z,-4.50
2022-11-20T18:26:43.923Z,-4.50
2022-11-20T18:31:46.340Z,-4.50
2022-11-20T18:36:48.445Z,-4.40
2022-11-20T18:42:09.336Z,-4.50
2022-11-20T18:47:15.188Z,-4.50
2022-11-20T18:52:18.696Z,-4.40
2022-11-20T18:57:22.961Z,-4.30
2022-11-20T19:02:25.091Z,-4.30
2022-11-20T19:07:27.527Z,-4.30
2022-11-20T19:12:29.496Z,-4.20
2022-11-20T19:17:33.739Z,-4.30
2022-11-20T19:22:35.507Z,-4.30
2022-11-20T19:27:37.423Z,-4.20
2022-11-20T19:32:39.408Z,-4.30
2022-11-20T19:37:41.341Z,-4.20
2022-11-20T19:42:43.280Z,-4.10
2022-11-20T19:48:06.681Z,-4.20
2022-11-20T19:53:07.687Z,-4.20
2022-11-20T19:58:09.431Z,-4.10
2022-11-20T20:03:11.446Z,-4.10
2022-11-20T20:08:16.928Z,-4.00
2022-11-20T20:13:18.965Z,-4.10
2022-11-20T20:18:20.889Z,-4.10
2022-11-20T20:23:22.671Z,-4.00
2022-11-20T20:28:24.377Z,-4.10
2022-11-20T20:33:26.230Z,-4.00
2022-11-20T20:38:28.174Z,-3.90
2022-11-20T20:43:30.369Z,-3.90
2022-11-20T20:48:32.276Z,-3.90
2022-11-20T20:53:34.046Z,-3.90
2022-11-20T20:58:35.829Z,-3.90
2022-11-20T21:03:38.278Z,-4.00
2022-11-20T21:08:42.747Z,-4.00
2022-11-20T21:13:47.570Z,-3.90
2022-11-20T21:18:49.517Z,-3.80
2022-11-20T21:23:53.508Z,-3.90
2022-11-20T21:28:57.185Z,-3.90
2022-11-20T21:33:59.056Z,-3.90
2022-11-20T21:39:01.145Z,-3.90
2022-11-20T21:49:26.474Z,-3.90
2022-11-20T21:54:28.484Z,-3.80
2022-11-20T21:59:30.200Z,-3.80
2022-11-20T22:04:32.082Z,-3.80
2022-11-20T22:09:33.911Z,-3.70
2022-11-20T22:14:35.635Z,-3.70
2022-11-20T22:19:37.372Z,-3.60
2022-11-20T22:24:39.102Z,-3.60
2022-11-20T22:29:40.870Z,-3.60
2022-11-20T22:34:42.713Z,-3.60
2022-11-20T22:39:44.666Z,-3.50
2022-11-20T22:44:46.371Z,-3.50
2022-11-20T22:49:48.126Z,-3.60
2022-11-20T22:54:49.844Z,-3.60
2022-11-20T22:59:51.570Z,-3.50
2022-11-20T23:04:53.325Z,-3.50
2022-11-20T23:09:55.050Z,-3.50
2022-11-20T23:14:56.766Z,-3.50
2022-11-20T23:19:58.534Z,-3.50
2022-11-20T23:25:00.266Z,-3.50
2022-11-20T23:30:02.058Z,-3.50
2022-11-20T23:35:04.059Z,-3.50
2022-11-20T23:40:06.534Z,-3.50
2022-11-20T23:45:08.851Z,-3.40
2022-11-20T23:50:10.815Z,-3.40
2022-11-20T23:55:12.550Z,-3.50
